Time;durP1;ratioP1;P1;durP2;ratioP2;P2;SDS_P1;SDS_P2;PMS_P1;PMS_P2;Temp;Humidity;BMP_temperature;BMP_pressure;BME280_temperature;BME280_humidity;BME280_pressure;Samples;Min_cycle;Max_cycle;Signal;HPM_P1;HPM_P2
2023/02/01 00:00:17;;;;;;;18.05;12.63;;;1.30;99.90;;;;;;5038893;28;20032;-78
2023/02/01 00:02:43;;;;;;;22.33;15.05;;;1.30;99.90;;;;;;5052270;28;20028;-81
2023/02/01 00:05:09;;;;;;;25.08;12.57;;;1.30;99.90;;;;;;5049557;28;20021;-77
2023/02/01 00:07:36;;;;;;;18.63;11.57;;;1.30;99.90;;;;;;5052492;28;20488;-80
2023/02/01 00:10:04;;;;;;;22.45;14.15;;;1.30;99.90;;;;;;5052410;28;20480;-78
2023/02/01 00:12:30;;;;;;;24.48;13.70;;;1.30;99.90;;;;;;5052205;28;20063;-78
2023/02/01 00:14:56;;;;;;;23.77;13.65;;;1.40;99.90;;;;;;5052698;28;20060;-79
2023/02/01 00:17:22;;;;;;;23.55;15.00;;;1.40;99.90;;;;;;5052354;28;20053;-77
2023/02/01 00:19:48;;;;;;;22.38;13.52;;;1.40;99.90;;;;;;5034507;28;20056;-77
2023/02/01 00:22:14;;;;;;;23.40;13.77;;;1.40;99.90;;;;;;5052463;28;20075;-79
2023/02/01 00:24:40;;;;;;;20.48;13.98;;;1.40;99.90;;;;;;5052027;28;20075;-78
2023/02/01 00:27:05;;;;;;;21.63;13.05;;;1.50;99.90;;;;;;5052044;28;20017;-76
2023/02/01 00:29:31;;;;;;;19.40;12.52;;;1.50;99.90;;;;;;5052107;28;20419;-76
2023/02/01 00:31:57;;;;;;;20.70;12.30;;;1.50;99.90;;;;;;5052228;28;20061;-76
2023/02/01 00:34:23;;;;;;;30.23;15.18;;;1.40;99.90;;;;;;5051808;28;20032;-77
2023/02/01 00:36:49;;;;;;;22.33;13.88;;;1.50;99.90;;;;;;5052220;28;20043;-76
2023/02/01 00:39:16;;;;;;;21.58;12.70;;;1.50;99.90;;;;;;5052110;28;20021;-77
2023/02/01 00:41:42;;;;;;;24.77;11.03;;;1.50;99.90;;;;;;5052237;28;20039;-77
2023/02/01 00:44:08;;;;;;;17.20;10.95;;;1.50;99.90;;;;;;5052068;28;20024;-78
2023/02/01 00:46:34;;;;;;;19.17;11.90;;;1.40;99.90;;;;;;5051452;28;20070;-77
2023/02/01 00:49:00;;;;;;;18.85;10.85;;;1.30;99.90;;;;;;5052083;28;20440;-76
2023/02/01 00:51:29;;;;;;;19.50;11.25;;;1.30;99.90;;;;;;5051730;28;20032;-78
2023/02/01 00:53:55;;;;;;;22.27;12.90;;;1.20;99.90;;;;;;5039891;28;20029;-77
2023/02/01 00:56:21;;;;;;;19.13;10.70;;;1.30;99.90;;;;;;5033311;28;20041;-77
2023/02/01 00:58:47;;;;;;;16.73;11.13;;;1.20;99.90;;;;;;5051526;28;20396;-76
2023/02/01 01:01:24;;;;;;;21.58;10.25;;;1.20;99.90;;;;;;5051555;28;20028;-76
2023/02/01 01:03:59;;;;;;;23.40;10.70;;;1.30;99.90;;;;;;5051527;28;20074;-76
2023/02/01 01:06:27;;;;;;;19.52;10.90;;;1.20;99.90;;;;;;5051499;28;20494;-77
2023/02/01 01:08:54;;;;;;;18.02;10.57;;;1.30;99.90;;;;;;5051484;28;20075;-77
2023/02/01 01:11:23;;;;;;;22.60;11.82;;;1.40;99.90;;;;;;5051730;28;20471;-77
2023/02/01 01:13:52;;;;;;;22.95;13.20;;;1.40;99.90;;;;;;5051263;28;20032;-78
2023/02/01 01:16:19;;;;;;;22.15;12.15;;;1.40;99.90;;;;;;5051493;28;20037;-79
2023/02/01 01:18:45;;;;;;;18.33;10.45;;;1.50;99.90;;;;;;5032697;28;20021;-78
2023/02/01 01:21:13;;;;;;;17.23;11.05;;;1.40;99.90;;;;;;5051475;28;20095;-76
2023/02/01 01:23:38;;;;;;;;;;;1.40;99.90;;;;;;5051882;28;20483;-77
2023/02/01 01:26:09;;;;;;;18.90;11.45;;;1.50;99.90;;;;;;5051421;28;19942;-77
2023/02/01 01:28:35;;;;;;;19.85;11.32;;;1.40;99.90;;;;;;5051106;28;20025;-77
2023/02/01 01:31:01;;;;;;;15.98;9.90;;;1.40;99.90;;;;;;5051420;28;20052;-78
2023/02/01 01:33:27;;;;;;;14.30;9.27;;;1.40;99.90;;;;;;5051336;28;20028;-78
2023/02/01 01:35:53;;;;;;;20.00;11.93;;;1.50;99.90;;;;;;5050975;28;20033;-78
2023/02/01 01:38:19;;;;;;;22.83;11.98;;;1.50;99.90;;;;;;5049259;28;20025;-77
2023/02/01 01:40:46;;;;;;;16.35;12.10;;;1.50;99.90;;;;;;5047119;28;20060;-77
2023/02/01 01:43:16;;;;;;;18.30;11.80;;;1.50;99.90;;;;;;5055433;28;20025;-78
2023/02/01 01:45:43;;;;;;;20.75;11.90;;;1.50;99.90;;;;;;5055462;28;20530;-76
2023/02/01 01:48:13;;;;;;;15.70;10.32;;;1.50;99.90;;;;;;5055383;28;20017;-79
2023/02/01 01:50:44;;;;;;;20.75;11.60;;;1.50;99.90;;;;;;5055106;28;20021;-78
2023/02/01 01:53:16;;;;;;;18.92;11.88;;;1.60;99.90;;;;;;5054962;28;20013;-76
2023/02/01 01:55:44;;;;;;;16.85;9.95;;;1.60;99.90;;;;;;5037116;28;20078;-77
2023/02/01 01:58:17;;;;;;;18.40;12.73;;;1.60;99.90;;;;;;5055004;28;20020;-79
2023/02/01 02:00:44;;;;;;;22.80;12.13;;;1.70;99.90;;;;;;5054896;28;20182;-77
2023/02/01 02:03:23;;;;;;;16.15;10.02;;;1.70;99.90;;;;;;5054948;28;21085;-76
2023/02/01 02:05:51;;;;;;;16.95;10.82;;;1.60;99.90;;;;;;5054795;28;20487;-76
2023/02/01 02:08:20;;;;;;;;;;;1.60;99.90;;;;;;5052377;28;20509;-78
2023/02/01 02:10:59;;;;;;;15.90;9.70;;;1.60;99.90;;;;;;5054973;28;19916;-78
2023/02/01 02:13:30;;;;;;;21.35;10.45;;;1.60;99.90;;;;;;5052277;28;20025;-77
2023/02/01 02:16:17;;;;;;;19.08;9.98;;;1.60;99.90;;;;;;5054414;28;20389;-77
2023/02/01 02:19:06;;;;;;;22.90;13.13;;;1.60;99.90;;;;;;5054532;28;20040;-76
2023/02/01 02:22:02;;;;;;;17.95;11.50;;;1.60;99.90;;;;;;5037267;28;20036;-77
2023/02/01 02:24:58;;;;;;;20.20;12.05;;;1.70;99.90;;;;;;5042093;28;20091;-78
2023/02/01 02:28:07;;;;;;;23.02;12.68;;;1.70;99.90;;;;;;5054353;28;20028;-77
2023/02/01 02:30:54;;;;;;;18.92;12.75;;;1.70;99.90;;;;;;4953921;29;20039;-77
2023/02/01 02:33:38;;;;;;;18.80;11.85;;;1.60;99.90;;;;;;5053453;28;20044;-78
2023/02/01 02:36:15;;;;;;;19.65;12.27;;;1.70;99.90;;;;;;5054349;28;20112;-77
2023/02/01 02:38:54;;;;;;;22.88;11.27;;;1.60;99.90;;;;;;5054373;28;20095;-77
2023/02/01 02:47:38;;;;;;;20.20;10.75;;;1.60;99.90;;;;;;5054344;28;20090;-77
2023/02/01 03:04:18;;;;;;;18.60;12.88;;;1.70;99.90;;;;;;5052651;28;20024;-77
2023/02/01 03:06:47;;;;;;;23.45;12.77;;;1.70;99.90;;;;;;5054040;28;20021;-77
2023/02/01 03:09:32;;;;;;;21.90;12.43;;;1.80;99.90;;;;;;5014519;28;20034;-77
2023/02/01 03:15:05;;;;;;;21.27;11.07;;;1.80;99.90;;;;;;5014264;28;20048;-76
2023/02/01 03:17:37;;;;;;;21.80;11.57;;;1.80;99.90;;;;;;5013959;28;20205;-76
2023/02/01 03:20:05;;;;;;;21.52;12.18;;;1.80;99.90;;;;;;5014114;28;20045;-74
2023/02/01 03:22:33;;;;;;;22.42;13.50;;;1.80;99.90;;;;;;5013600;28;20053;-77
2023/02/01 03:25:15;;;;;;;19.83;12.73;;;1.80;99.90;;;;;;5013927;28;20084;-79
2023/02/01 03:27:49;;;;;;;18.30;11.23;;;1.90;99.90;;;;;;5013718;28;20018;-78
2023/02/01 03:30:25;;;;;;;23.45;12.57;;;1.90;99.90;;;;;;5013558;28;20032;-76
2023/02/01 03:32:59;;;;;;;18.17;11.27;;;1.90;99.90;;;;;;5013502;28;20033;-78
2023/02/01 03:36:06;;;;;;;17.60;11.38;;;1.90;99.90;;;;;;5013510;28;20049;-75
2023/02/01 03:38:41;;;;;;;19.45;11.20;;;1.80;99.90;;;;;;4952494;28;20019;-77
2023/02/01 03:41:11;;;;;;;20.13;12.45;;;1.80;99.90;;;;;;4965941;28;20026;-78
2023/02/01 03:43:55;;;;;;;19.10;11.88;;;1.80;99.90;;;;;;4967134;28;20399;-77
2023/02/01 03:46:35;;;;;;;21.98;13.00;;;1.80;99.90;;;;;;4966176;28;20050;-76
2023/02/01 03:49:07;;;;;;;20.48;13.52;;;1.80;99.90;;;;;;4963466;28;20034;-77
2023/02/01 03:51:38;;;;;;;21.50;13.23;;;1.80;99.90;;;;;;4966008;28;20029;-78
2023/02/01 03:54:07;;;;;;;19.70;11.80;;;1.90;99.90;;;;;;4962414;28;20532;-76
2023/02/01 03:56:36;;;;;;;20.73;12.07;;;1.90;99.90;;;;;;4964266;28;20035;-76
2023/02/01 03:59:02;;;;;;;23.77;14.57;;;1.80;99.90;;;;;;4962119;28;20453;-78
2023/02/01 04:01:30;;;;;;;22.33;13.05;;;1.80;99.90;;;;;;4961821;28;20054;-77
2023/02/01 04:03:56;;;;;;;;;;;1.80;99.90;;;;;;4947546;28;20445;-77
2023/02/01 04:06:22;;;;;;;25.33;13.98;;;1.80;99.90;;;;;;4960798;28;19907;-77
2023/02/01 04:08:48;;;;;;;20.60;12.63;;;1.70;99.90;;;;;;4964668;28;20070;-77
2023/02/01 04:11:14;;;;;;;22.92;15.10;;;1.70;99.90;;;;;;4959380;28;20519;-76
2023/02/01 04:13:39;;;;;;;25.95;13.43;;;1.80;99.90;;;;;;5011192;28;20040;-77
2023/02/01 04:16:05;;;;;;;27.17;16.13;;;1.80;99.90;;;;;;5012560;28;20030;-79
2023/02/01 04:18:31;;;;;;;22.50;13.38;;;1.80;99.90;;;;;;5011890;28;20030;-77
2023/02/01 04:20:57;;;;;;;24.23;14.57;;;1.70;99.90;;;;;;5012791;28;20033;-77
2023/02/01 04:23:23;;;;;;;28.23;15.70;;;1.70;99.90;;;;;;5011510;28;20076;-77
2023/02/01 04:25:48;;;;;;;27.00;16.70;;;1.70;99.90;;;;;;5012545;28;20408;-77
2023/02/01 04:28:14;;;;;;;28.35;13.73;;;1.70;99.90;;;;;;5012713;28;20022;-76
2023/02/01 04:30:40;;;;;;;25.02;15.55;;;1.80;99.90;;;;;;5012422;28;20049;-76
2023/02/01 04:33:06;;;;;;;22.67;13.50;;;1.70;99.90;;;;;;5012575;28;20044;-77
2023/02/01 04:35:32;;;;;;;29.27;17.55;;;1.60;99.90;;;;;;5012259;28;20041;-77
2023/02/01 04:37:58;;;;;;;25.40;14.07;;;1.70;99.90;;;;;;5012526;28;20025;-79
2023/02/01 04:40:25;;;;;;;25.00;13.30;;;1.70;99.90;;;;;;5011102;28;20100;-78
2023/02/01 04:42:50;;;;;;;24.17;15.57;;;1.70;99.90;;;;;;5011073;28;20053;-79
2023/02/01 04:45:16;;;;;;;21.92;13.25;;;1.70;99.90;;;;;;5012252;28;20065;-78
2023/02/01 04:47:42;;;;;;;25.73;14.95;;;1.70;99.90;;;;;;5012314;28;20018;-77
2023/02/01 04:50:10;;;;;;;22.80;13.70;;;1.70;99.90;;;;;;5012471;28;20565;-76
2023/02/01 04:52:36;;;;;;;;;;;1.80;99.90;;;;;;5012370;28;20072;-77
2023/02/01 04:55:02;;;;;;;25.95;14.93;;;1.80;99.90;;;;;;5003925;28;20012;-76
2023/02/01 04:57:28;;;;;;;27.83;15.85;;;1.80;99.90;;;;;;5012197;28;20092;-76
2023/02/01 04:59:54;;;;;;;29.67;15.77;;;1.80;99.90;;;;;;5012064;28;20106;-78
2023/02/01 05:02:20;;;;;;;31.00;16.13;;;1.90;99.90;;;;;;5011932;28;20026;-78
2023/02/01 05:04:46;;;;;;;24.70;14.35;;;1.90;99.90;;;;;;5011682;28;20057;-79
2023/02/01 05:07:12;;;;;;;27.58;14.20;;;2.00;99.90;;;;;;5019212;28;20395;-77
2023/02/01 05:09:38;;;;;;;26.23;15.90;;;1.90;99.90;;;;;;5043711;28;20030;-78
2023/02/01 05:14:48;;;;;;;34.03;14.50;;;1.90;99.90;;;;;;5051432;28;20040;-79
2023/02/01 05:17:14;;;;;;;22.65;14.13;;;1.90;99.90;;;;;;5051286;28;20039;-77
2023/02/01 05:19:40;;;;;;;24.25;12.43;;;1.90;99.90;;;;;;5051351;28;20009;-76
2023/02/01 05:22:06;;;;;;;23.70;13.85;;;1.90;99.90;;;;;;5050709;28;20021;-79
2023/02/01 05:24:32;;;;;;;27.45;15.40;;;1.80;99.90;;;;;;5032995;28;20021;-77
2023/02/01 05:26:57;;;;;;;25.50;13.57;;;1.70;99.90;;;;;;5051545;28;20033;-78
2023/02/01 05:29:23;;;;;;;23.63;15.40;;;1.70;99.90;;;;;;5051096;28;20013;-77
2023/02/01 05:31:49;;;;;;;31.38;15.90;;;1.60;99.90;;;;;;5046946;28;20064;-77
2023/02/01 05:34:15;;;;;;;30.67;14.50;;;1.70;99.90;;;;;;5048093;28;20057;-77
2023/02/01 05:36:41;;;;;;;27.85;15.68;;;1.60;99.90;;;;;;5050787;28;20479;-77
2023/02/01 05:39:07;;;;;;;28.52;13.40;;;1.60;99.90;;;;;;5033093;28;20032;-76
2023/02/01 05:41:33;;;;;;;25.23;14.50;;;1.60;99.90;;;;;;5050993;28;20025;-77
2023/02/01 05:43:59;;;;;;;29.98;16.33;;;1.60;99.90;;;;;;5051229;28;20017;-78
2023/02/01 05:46:25;;;;;;;29.70;15.90;;;1.60;99.90;;;;;;5050733;28;20029;-78
2023/02/01 05:48:50;;;;;;;32.42;17.15;;;1.50;99.90;;;;;;5026738;28;20606;-77
2023/02/01 05:51:16;;;;;;;27.73;14.07;;;1.60;99.90;;;;;;5050398;28;20025;-77
2023/02/01 05:53:42;;;;;;;25.52;13.10;;;1.60;99.90;;;;;;5051013;28;20032;-76
2023/02/01 05:56:08;;;;;;;27.48;13.60;;;1.50;99.90;;;;;;5050408;28;20037;-75
2023/02/01 05:58:34;;;;;;;22.45;12.10;;;1.40;99.90;;;;;;5050718;28;20055;-77
2023/02/01 06:01:00;;;;;;;29.92;14.90;;;1.40;99.90;;;;;;5050961;28;20017;-76
2023/02/01 06:03:27;;;;;;;33.03;17.83;;;1.50;99.90;;;;;;5041774;28;20384;-77
2023/02/01 06:05:53;;;;;;;30.67;16.05;;;1.50;99.90;;;;;;5050821;28;20302;-79
2023/02/01 06:08:19;;;;;;;25.77;13.35;;;1.40;99.90;;;;;;5050837;28;20045;-78
2023/02/01 06:10:45;;;;;;;30.42;15.05;;;1.40;99.90;;;;;;5050961;28;20017;-77
2023/02/01 06:13:10;;;;;;;34.80;16.60;;;1.40;99.90;;;;;;5033293;28;20118;-77
2023/02/01 06:15:37;;;;;;;29.80;17.75;;;1.40;99.90;;;;;;5049594;28;20036;-77
2023/02/01 06:18:03;;;;;;;36.42;19.50;;;1.50;99.90;;;;;;5050847;28;20448;-79
2023/02/01 06:20:29;;;;;;;36.03;15.45;;;1.60;99.90;;;;;;5048866;28;20021;-76
2023/02/01 06:22:55;;;;;;;20.75;11.63;;;1.60;99.90;;;;;;5051154;28;20017;-77
2023/02/01 06:25:21;;;;;;;32.90;15.13;;;1.50;99.90;;;;;;5034359;28;20064;-76
2023/02/01 06:27:48;;;;;;;37.13;17.15;;;1.40;99.90;;;;;;5054356;28;20032;-79
2023/02/01 06:30:14;;;;;;;33.10;16.67;;;1.30;99.90;;;;;;5054765;28;20605;-78
2023/02/01 06:32:41;;;;;;;35.67;17.83;;;1.30;99.90;;;;;;5054023;28;20079;-77
2023/02/01 06:35:15;;;;;;;26.20;12.48;;;1.30;99.90;;;;;;5049880;28;20067;-78
2023/02/01 06:37:41;;;;;;;30.67;13.25;;;1.20;99.90;;;;;;5054222;28;20021;-76
2023/02/01 06:40:08;;;;;;;30.83;14.63;;;1.20;99.90;;;;;;5053948;28;20043;-77
2023/02/01 06:42:34;;;;;;;31.23;16.15;;;1.10;99.90;;;;;;5019617;28;20025;-77
2023/02/01 06:45:00;;;;;;;28.48;16.73;;;1.10;99.90;;;;;;5054119;28;20369;-76
2023/02/01 06:47:26;;;;;;;40.10;16.33;;;1.20;99.90;;;;;;5048215;28;20075;-75
2023/02/01 06:49:51;;;;;;;37.15;16.38;;;1.20;99.90;;;;;;5054050;28;20048;-78
2023/02/01 06:52:17;;;;;;;32.75;15.98;;;1.20;99.90;;;;;;5054157;28;20025;-77
2023/02/01 06:54:43;;;;;;;34.65;17.63;;;1.20;99.90;;;;;;5047296;28;20025;-77
2023/02/01 06:57:09;;;;;;;29.88;15.98;;;1.20;99.90;;;;;;5045539;28;20027;-77
2023/02/01 06:59:34;;;;;;;20.08;10.40;;;1.20;99.90;;;;;;5056426;28;20475;-77
2023/02/01 07:02:00;;;;;;;27.92;15.73;;;1.20;99.90;;;;;;5055652;28;20025;-77
2023/02/01 07:04:26;;;;;;;32.17;15.80;;;1.20;99.90;;;;;;5037183;28;20133;-75
2023/02/01 07:06:52;;;;;;;27.83;14.10;;;1.20;99.90;;;;;;5054141;28;20029;-77
2023/02/01 07:09:18;;;;;;;29.67;14.75;;;1.20;99.90;;;;;;5056982;28;20035;-76
2023/02/01 07:11:43;;;;;;;32.30;15.40;;;1.20;99.90;;;;;;5044257;28;20021;-77
2023/02/01 07:14:10;;;;;;;25.58;14.60;;;1.20;99.90;;;;;;5053869;28;20017;-78
2023/02/01 07:16:36;;;;;;;32.67;15.48;;;1.30;99.90;;;;;;5053647;28;20033;-77
2023/02/01 07:19:04;;;;;;;24.10;13.38;;;1.30;99.90;;;;;;5053769;28;20025;-77
2023/02/01 07:21:29;;;;;;;26.17;15.73;;;1.30;99.90;;;;;;5053828;28;20036;-78
2023/02/01 07:23:55;;;;;;;32.53;14.82;;;1.30;99.90;;;;;;5053060;28;20387;-79
2023/02/01 07:26:22;;;;;;;33.97;17.35;;;1.30;99.90;;;;;;5052948;28;20036;-77
2023/02/01 07:28:48;;;;;;;24.65;14.88;;;1.20;99.90;;;;;;5052349;28;20372;-78
2023/02/01 07:31:18;;;;;;;30.23;14.82;;;1.20;99.90;;;;;;5052876;28;20104;-78
2023/02/01 07:33:44;;;;;;;32.67;16.48;;;1.20;99.90;;;;;;5052488;28;20441;-79
2023/02/01 07:36:15;;;;;;;26.52;15.00;;;1.30;99.90;;;;;;5045553;28;20402;-77
2023/02/01 07:38:41;;;;;;;31.60;17.58;;;1.30;99.90;;;;;;5041631;28;20491;-78
2023/02/01 07:41:08;;;;;;;29.00;16.98;;;1.30;99.90;;;;;;5050719;28;20434;-80
2023/02/01 07:43:35;;;;;;;30.63;15.15;;;1.30;99.90;;;;;;5035712;28;20111;-81
2023/02/01 07:46:01;;;;;;;28.33;15.07;;;1.30;99.90;;;;;;5057754;28;20028;-79
2023/02/01 07:48:27;;;;;;;31.85;15.15;;;1.20;99.90;;;;;;5049322;28;20100;-78
2023/02/01 07:50:58;;;;;;;23.13;12.18;;;1.30;99.90;;;;;;5027500;28;20528;-78
2023/02/01 07:53:24;;;;;;;34.22;15.50;;;1.30;99.90;;;;;;5037064;28;20430;-77
2023/02/01 07:55:50;;;;;;;26.58;13.13;;;1.20;99.90;;;;;;5049886;28;20037;-79
2023/02/01 07:58:17;;;;;;;26.10;14.18;;;1.30;99.90;;;;;;5048738;28;20069;-76
2023/02/01 08:03:27;;;;;;;25.17;12.43;;;1.20;99.90;;;;;;5049809;28;20466;-80
2023/02/01 08:05:56;;;;;;;23.73;13.43;;;1.20;99.90;;;;;;5049814;28;20031;-79
2023/02/01 08:08:22;;;;;;;27.08;14.38;;;1.20;99.90;;;;;;5047539;28;20381;-77
2023/02/01 08:10:48;;;;;;;29.08;18.80;;;1.20;99.90;;;;;;5049976;28;20017;-79
2023/02/01 08:13:15;;;;;;;31.13;15.10;;;1.20;99.90;;;;;;5049841;28;20047;-79
2023/02/01 08:15:40;;;;;;;31.77;19.10;;;1.30;99.90;;;;;;5052641;28;20456;-78
2023/02/01 08:18:06;;;;;;;34.03;17.73;;;1.40;99.90;;;;;;5052753;28;20108;-79
2023/02/01 08:20:35;;;;;;;33.10;18.00;;;1.50;99.90;;;;;;5052534;28;20025;-79
2023/02/01 08:23:01;;;;;;;27.95;16.40;;;1.50;99.90;;;;;;5051899;28;20025;-77
2023/02/01 08:25:27;;;;;;;33.13;17.95;;;1.70;99.90;;;;;;5042779;28;20648;-80
2023/02/01 08:27:54;;;;;;;38.15;19.88;;;1.70;99.90;;;;;;5041180;28;20017;-79
2023/02/01 08:30:20;;;;;;;38.90;16.90;;;1.70;99.90;;;;;;5036985;28;20033;-77
2023/02/01 08:32:46;;;;;;;33.65;16.48;;;1.80;99.90;;;;;;5029474;28;20033;-78
2023/02/01 08:35:12;;;;;;;33.47;17.35;;;1.80;99.90;;;;;;5036843;28;20109;-78
2023/02/01 08:37:38;;;;;;;33.17;19.23;;;1.80;99.90;;;;;;5047378;28;20036;-80
2023/02/01 08:40:05;;;;;;;27.50;16.63;;;1.90;99.90;;;;;;5038734;28;20017;-78
2023/02/01 08:45:15;;;;;;;28.23;15.93;;;1.90;99.90;;;;;;5037889;28;20455;-79
2023/02/01 08:47:44;;;;;;;27.63;15.95;;;2.00;99.90;;;;;;5037696;28;20029;-79
2023/02/01 08:50:10;;;;;;;33.00;16.95;;;2.10;99.90;;;;;;5030614;28;20017;-80
2023/02/01 08:52:36;;;;;;;29.60;16.58;;;2.10;99.90;;;;;;5036716;28;20472;-79
2023/02/01 08:55:06;;;;;;;24.63;14.23;;;2.10;99.90;;;;;;5044753;28;20068;-79
2023/02/01 08:57:33;;;;;;;26.70;15.45;;;2.20;99.90;;;;;;5036920;28;20044;-80
2023/02/01 08:59:59;;;;;;;27.80;16.60;;;2.20;99.90;;;;;;5041582;28;20468;-81
2023/02/01 09:02:26;;;;;;;24.93;13.67;;;2.40;99.90;;;;;;5036756;28;20522;-81
2023/02/01 09:04:52;;;;;;;24.70;12.20;;;2.40;99.90;;;;;;5030193;28;20028;-82
2023/02/01 09:07:18;;;;;;;26.50;12.50;;;2.30;99.90;;;;;;5027498;28;20042;-80
2023/02/01 09:09:45;;;;;;;25.80;13.38;;;2.10;99.90;;;;;;5033470;28;20119;-80
2023/02/01 09:12:11;;;;;;;24.73;14.97;;;2.00;99.90;;;;;;5047481;28;20070;-80
2023/02/01 09:14:37;;;;;;;22.75;12.50;;;1.90;99.90;;;;;;5051486;28;20343;-79
2023/02/01 09:17:05;;;;;;;27.88;14.48;;;1.80;99.90;;;;;;5051715;28;20021;-81
2023/02/01 09:19:31;;;;;;;30.00;14.55;;;1.80;99.90;;;;;;5046830;28;20471;-87
2023/02/01 09:21:57;;;;;;;31.88;15.45;;;1.90;99.90;;;;;;5027445;28;20025;-87
2023/02/01 09:24:27;;;;;;;37.80;18.17;;;2.00;99.90;;;;;;5030726;28;20595;-79
2023/02/01 09:26:53;;;;;;;33.17;19.05;;;1.90;99.90;;;;;;5051027;28;20017;-78
2023/02/01 09:29:19;;;;;;;33.78;20.02;;;2.00;99.90;;;;;;5051184;28;20047;-78
2023/02/01 09:31:45;;;;;;;36.25;17.85;;;2.10;99.90;;;;;;5039809;28;20072;-80
2023/02/01 09:34:11;;;;;;;30.92;16.73;;;2.10;99.90;;;;;;5040299;28;20487;-80
2023/02/01 09:36:37;;;;;;;34.88;18.00;;;2.10;99.90;;;;;;5041589;28;20044;-78
2023/02/01 09:39:05;;;;;;;30.95;17.77;;;1.90;99.90;;;;;;5048514;28;20392;-79
2023/02/01 09:41:54;;;;;;;30.60;16.77;;;1.90;99.90;;;;;;5047694;28;20021;-80
2023/02/01 09:45:06;;;;;;;33.03;17.95;;;1.90;99.90;;;;;;5044012;28;20014;-80
2023/02/01 09:47:32;;;;;;;32.20;18.80;;;1.90;99.90;;;;;;5003100;28;20044;-78
2023/02/01 09:50:20;;;;;;;38.38;20.52;;;1.90;99.90;;;;;;5037069;28;20025;-77
2023/02/01 09:52:48;;;;;;;38.17;18.77;;;1.80;99.90;;;;;;5036937;28;20120;-78
2023/02/01 09:55:26;;;;;;;33.08;18.40;;;1.70;99.90;;;;;;5031337;28;20022;-77
2023/02/01 09:58:00;;;;;;;33.38;19.17;;;1.70;99.90;;;;;;5032334;28;20412;-77
2023/02/01 10:00:33;;;;;;;27.80;18.00;;;1.70;99.90;;;;;;5033479;28;20044;-77
2023/02/01 10:02:59;;;;;;;33.65;17.42;;;1.70;99.90;;;;;;5043100;28;20135;-81
2023/02/01 10:06:13;;;;;;;32.90;18.90;;;1.80;99.90;;;;;;5036923;28;20022;-77
2023/02/01 10:08:57;;;;;;;35.72;18.30;;;1.80;99.90;;;;;;4993621;28;20040;-76
2023/02/01 10:11:23;;;;;;;32.38;20.52;;;1.80;99.90;;;;;;5041456;28;20018;-78
2023/02/01 10:14:30;;;;;;;27.38;17.00;;;1.80;99.90;;;;;;5054614;28;20021;-78
2023/02/01 10:17:00;;;;;;;31.70;18.63;;;1.80;99.90;;;;;;5042752;28;20045;-77
2023/02/01 10:19:28;;;;;;;29.48;16.73;;;1.70;99.90;;;;;;5051487;28;20029;-77
2023/02/01 10:22:02;;;;;;;33.63;17.83;;;1.60;99.90;;;;;;5054241;28;20100;-78
2023/02/01 10:24:42;;;;;;;24.63;13.40;;;1.50;99.90;;;;;;5037342;28;20021;-78
2023/02/01 10:27:17;;;;;;;28.08;15.02;;;1.60;99.90;;;;;;5037749;28;20024;-78
2023/02/01 10:29:47;;;;;;;36.90;20.33;;;1.40;99.90;;;;;;5038737;28;20092;-79
2023/02/01 10:32:20;;;;;;;33.00;20.60;;;1.30;99.90;;;;;;5045157;28;20124;-81
2023/02/01 10:35:12;;;;;;;35.78;20.35;;;1.40;99.90;;;;;;5039083;28;20065;-79
2023/02/01 10:37:40;;;;;;;35.67;21.13;;;1.40;99.90;;;;;;5026803;28;20143;-81
2023/02/01 10:40:17;;;;;;;30.23;17.98;;;1.40;99.90;;;;;;5037251;28;20433;-80
2023/02/01 10:42:45;;;;;;;39.15;22.17;;;1.20;99.90;;;;;;5039619;28;20029;-79
2023/02/01 10:45:16;;;;;;;39.75;21.60;;;1.10;99.90;;;;;;5047998;28;20029;-80
2023/02/01 10:47:42;;;;;;;36.22;21.73;;;1.10;99.90;;;;;;5031849;28;20025;-81
2023/02/01 10:50:31;;;;;;;35.38;21.42;;;1.10;99.90;;;;;;5035770;28;20557;-80
2023/02/01 10:53:29;;;;;;;36.80;19.88;;;1.00;99.90;;;;;;5047561;28;20118;-78
2023/02/01 10:55:55;;;;;;;34.75;20.55;;;0.90;99.90;;;;;;5052662;28;20103;-78
2023/02/01 10:58:31;;;;;;;33.97;19.85;;;0.90;99.90;;;;;;5050912;28;20025;-79
2023/02/01 11:01:05;;;;;;;34.97;19.33;;;0.80;99.90;;;;;;5034407;28;20036;-78
2023/02/01 11:03:40;;;;;;;40.63;19.15;;;0.80;99.90;;;;;;5050552;28;20013;-79
2023/02/01 11:06:46;;;;;;;33.20;18.80;;;0.80;99.90;;;;;;5048212;28;20488;-80
2023/02/01 11:09:22;;;;;;;32.40;19.02;;;0.80;99.90;;;;;;5042519;28;20041;-79
2023/02/01 11:11:48;;;;;;;39.95;19.80;;;0.80;99.90;;;;;;5050684;28;20043;-79
2023/02/01 11:14:32;;;;;;;39.10;24.98;;;0.80;99.90;;;;;;5039973;28;20025;-79
2023/02/01 11:17:00;;;;;;;34.70;17.77;;;0.90;99.90;;;;;;5053496;28;20086;-80
2023/02/01 11:19:26;;;;;;;40.38;18.75;;;1.00;99.90;;;;;;5046082;28;20104;-78
2023/02/01 11:21:58;;;;;;;33.80;18.47;;;1.00;99.90;;;;;;5033736;28;20025;-78
2023/02/01 11:24:29;;;;;;;33.78;19.92;;;1.00;99.90;;;;;;5048802;28;20243;-80
2023/02/01 11:26:57;;;;;;;35.53;19.02;;;1.10;99.90;;;;;;5034331;28;20036;-80
2023/02/01 11:29:29;;;;;;;35.30;22.25;;;1.10;99.90;;;;;;5038557;28;20075;-77
2023/02/01 11:31:57;;;;;;;35.92;16.90;;;1.10;99.90;;;;;;5051064;28;20385;-78
2023/02/01 11:34:31;;;;;;;38.63;19.13;;;1.20;99.90;;;;;;5046796;28;20023;-77
2023/02/01 11:37:00;;;;;;;31.85;19.17;;;1.00;99.90;;;;;;5047225;28;20120;-78
2023/02/01 11:39:35;;;;;;;36.67;20.80;;;0.90;99.90;;;;;;5046293;28;20086;-77
2023/02/01 11:42:06;;;;;;;40.13;21.08;;;1.00;99.90;;;;;;5047323;28;20037;-79
2023/02/01 11:44:38;;;;;;;32.22;19.08;;;1.10;99.90;;;;;;5046074;28;20016;-78
2023/02/01 11:47:20;;;;;;;29.98;17.63;;;1.10;99.90;;;;;;5050703;28;20023;-79
2023/02/01 11:49:48;;;;;;;31.98;16.10;;;1.10;99.90;;;;;;5033938;28;20032;-78
2023/02/01 11:52:20;;;;;;;31.55;17.02;;;1.00;99.90;;;;;;5045171;28;20029;-76
2023/02/01 11:55:02;;;;;;;32.97;18.90;;;0.90;99.90;;;;;;5038740;28;20438;-79
2023/02/01 11:57:31;;;;;;;30.45;16.77;;;0.90;99.90;;;;;;5035811;28;20053;-77
2023/02/01 12:00:33;;;;;;;34.40;17.63;;;1.00;99.90;;;;;;5038753;28;20040;-79
2023/02/01 12:03:14;;;;;;;32.08;17.70;;;1.00;99.90;;;;;;5048104;28;20025;-80
2023/02/01 12:06:03;;;;;;;30.13;16.27;;;1.10;99.90;;;;;;5044732;28;20113;-78
2023/02/01 12:09:00;;;;;;;34.80;18.83;;;1.20;99.90;;;;;;5032522;28;20470;-80
2023/02/01 12:11:25;;;;;;;;;;;1.30;99.90;;;;;;5034132;28;20546;-78
2023/02/01 12:14:29;;;;;;;30.35;17.02;;;1.30;99.90;;;;;;5048967;28;19909;-77
2023/02/01 12:17:33;;;;;;;34.53;18.45;;;1.40;99.90;;;;;;5030302;28;20036;-79
2023/02/01 12:20:30;;;;;;;30.95;16.73;;;1.50;99.90;;;;;;5051325;28;20078;-81
2023/02/01 12:23:21;;;;;;;25.77;17.17;;;1.50;99.90;;;;;;5038783;28;20373;-81
2023/02/01 12:26:16;;;;;;;25.38;15.63;;;1.50;99.90;;;;;;5051661;28;20028;-82
2023/02/01 12:29:00;;;;;;;28.92;16.70;;;1.50;99.90;;;;;;5034344;28;20400;-79
2023/02/01 12:31:39;;;;;;;31.50;19.25;;;1.40;99.90;;;;;;5039203;28;20017;-81
2023/02/01 12:34:18;;;;;;;26.40;15.55;;;1.40;99.90;;;;;;5032687;28;20032;-81
2023/02/01 12:37:21;;;;;;;29.30;19.17;;;1.40;99.90;;;;;;5046765;28;20061;-80
2023/02/01 12:40:07;;;;;;;27.00;14.40;;;1.40;99.90;;;;;;5017922;28;20052;-79
2023/02/01 12:42:41;;;;;;;27.27;16.25;;;1.40;99.90;;;;;;5028269;28;20116;-77
2023/02/01 12:45:14;;;;;;;26.55;15.68;;;1.40;99.90;;;;;;5049759;28;20033;-77
2023/02/01 12:47:55;;;;;;;22.42;11.57;;;1.40;99.90;;;;;;5049094;28;20023;-78
2023/02/01 12:50:28;;;;;;;24.60;14.52;;;1.30;99.90;;;;;;5044597;28;20033;-78
2023/02/01 12:53:02;;;;;;;20.60;12.25;;;1.20;99.90;;;;;;5039969;28;20021;-78
2023/02/01 12:55:38;;;;;;;27.25;14.63;;;1.20;99.90;;;;;;5034042;28;20121;-77
2023/02/01 12:58:13;;;;;;;21.00;12.00;;;1.20;99.90;;;;;;5037055;28;20059;-78
2023/02/01 13:00:54;;;;;;;25.92;14.15;;;1.20;99.90;;;;;;5033950;28;20427;-77
2023/02/01 13:03:39;;;;;;;22.77;12.88;;;1.30;99.90;;;;;;5026701;28;20387;-77
2023/02/01 13:06:35;;;;;;;23.58;15.18;;;1.40;99.90;;;;;;5033698;28;20044;-76
2023/02/01 13:09:21;;;;;;;25.07;13.97;;;1.50;99.90;;;;;;4954382;28;1308388;-77
2023/02/01 13:11:50;;;;;;;23.98;14.18;;;1.60;99.90;;;;;;5037387;28;20033;-77
2023/02/01 13:14:57;;;;;;;30.85;14.77;;;1.60;99.90;;;;;;5037938;28;20475;-76
2023/02/01 13:17:28;;;;;;;26.13;14.50;;;1.60;99.90;;;;;;5051295;28;20112;-77
2023/02/01 13:20:03;;;;;;;23.95;13.18;;;1.70;99.90;;;;;;5051628;28;20083;-77
2023/02/01 13:22:41;;;;;;;25.98;14.98;;;1.60;99.90;;;;;;5051372;28;20102;-76
2023/02/01 13:25:24;;;;;;;24.80;14.05;;;1.60;99.90;;;;;;5046835;28;20034;-80
2023/02/01 13:27:55;;;;;;;30.88;15.13;;;1.70;99.90;;;;;;5026539;28;20099;-81
2023/02/01 13:30:26;;;;;;;22.02;12.25;;;1.70;99.90;;;;;;5039279;28;20029;-79